Terminal Aerodrome Forecast
Issued by NWS

Home | Current Version | Previous Version | Text Only | Print | Product List | Glossary On
Versions: 1 2 3 4 5 6 7 8 9 10 11 12 13 14 15 16 17 18 19 20 21
000
FTUS44 KLZK 241100
TAFLIT
TAF
KLIT 241139Z 2412/2512 14007KT P6SM BKN060 OVC150
     FM241700 20015G25KT P6SM -SHRA OVC050
      TEMPO 2417/2421 5SM TSRA BR OVC030CB
     FM242100 24015G25KT 6SM -SHRA OVC030
      TEMPO 2421/2501 5SM TSRA BR OVC025CB
     FM250300 27013G23KT P6SM SCT040=

USA.gov is the U.S. government's official web portal to all federal, state and local government web resources and services.